Nashville, Tennessee
Traffic Map
Current Weather Conditions
Nashville, Tennessee
Overcast Heavy Rain
Overcast
11°
Feels Like: 11°
Wind Chill: 11° Ceiling: 1700
Heat Index: 11° Visibility: 2.5mi
Dew Point: 10° Wind: 14mph
Humidity: 94% Direction: 320° (NW)
Pressure: 29.9in Gusts: 22mph
Raw Report DataKBNA 041104Z 32012G19KT 2 1/2SM +RA BR FEW005 BKN017 OVC024 11/10 A2990 RMK AO2 VIS 2V4 P0004
Traffic Incident Summary
Active as of:
Severity:
Category:
InformationThere was an issue retrieving the traffic information for this location. Please try a different location or try again shortly.
Advertisements
Track Severe Weather on mobile